createdAt,value
2018-11-05T00:00:40.610Z,35.33
2018-11-05T00:03:08.804Z,36.10
2018-11-05T00:05:36.963Z,36.47
2018-11-05T00:08:05.396Z,34.43
2018-11-05T00:10:33.467Z,35.23
2018-11-05T00:13:01.585Z,34.93
2018-11-05T00:15:29.664Z,37.40
2018-11-05T00:17:57.970Z,35.70
2018-11-05T00:20:26.069Z,36.67
2018-11-05T00:22:54.234Z,35.67
2018-11-05T00:25:22.412Z,36.97
2018-11-05T00:27:50.622Z,36.73
2018-11-05T00:30:18.736Z,35.97
2018-11-05T00:32:46.848Z,34.57
2018-11-05T00:35:14.958Z,36.20
2018-11-05T00:37:43.137Z,37.63
2018-11-05T00:40:13.585Z,39.17
2018-11-05T00:42:42.276Z,38.57
2018-11-05T00:45:11.342Z,39.87
2018-11-05T00:47:39.765Z,37.67
2018-11-05T00:50:09.156Z,38.20
2018-11-05T00:52:37.377Z,37.97
2018-11-05T00:55:05.652Z,38.77
2018-11-05T00:57:33.817Z,36.10
2018-11-05T01:00:01.957Z,38.87
2018-11-05T01:02:30.334Z,39.27
2018-11-05T01:04:58.681Z,38.77
2018-11-05T01:07:26.848Z,38.90
2018-11-05T01:09:55.011Z,39.50
2018-11-05T01:12:23.132Z,37.97
2018-11-05T01:14:51.225Z,40.17
2018-11-05T01:17:19.357Z,38.20
2018-11-05T01:19:47.480Z,38.20
2018-11-05T01:22:15.573Z,38.67
2018-11-05T01:24:43.680Z,37.23
2018-11-05T01:27:11.800Z,38.60
2018-11-05T01:29:39.919Z,38.47
2018-11-05T01:32:08.013Z,39.73
2018-11-05T01:34:36.788Z,38.97
2018-11-05T01:37:05.094Z,39.60
2018-11-05T01:39:33.187Z,38.07
2018-11-05T01:42:01.317Z,38.07
2018-11-05T01:44:29.368Z,38.20
2018-11-05T01:46:57.433Z,38.37
2018-11-05T01:49:25.575Z,39.73
2018-11-05T01:51:53.686Z,36.87
2018-11-05T01:54:21.778Z,39.40
2018-11-05T01:56:49.871Z,38.03
2018-11-05T01:59:17.976Z,38.07
2018-11-05T02:01:46.154Z,39.70
2018-11-05T02:04:14.303Z,39.50
2018-11-05T02:06:42.493Z,39.30
2018-11-05T02:09:10.667Z,40.07
2018-11-05T02:11:38.813Z,39.67
2018-11-05T02:14:06.921Z,40.37
2018-11-05T02:16:35.090Z,40.83
2018-11-05T02:19:03.205Z,39.00
2018-11-05T02:21:31.372Z,42.13
2018-11-05T02:23:59.467Z,41.13
2018-11-05T02:26:27.640Z,39.50
2018-11-05T02:28:55.709Z,40.33
2018-11-05T02:31:23.840Z,42.23
2018-11-05T02:33:51.962Z,40.10
2018-11-05T02:36:20.164Z,42.43
2018-11-05T02:38:48.328Z,39.70
2018-11-05T02:41:16.472Z,40.93
2018-11-05T02:43:44.603Z,38.13
2018-11-05T02:46:12.722Z,38.90
2018-11-05T02:48:41.064Z,37.40
2018-11-05T02:51:09.208Z,37.93
2018-11-05T02:53:37.340Z,39.50
2018-11-05T02:56:05.606Z,37.70
2018-11-05T02:58:33.750Z,41.93
2018-11-05T03:01:01.879Z,36.83
2018-11-05T03:03:29.992Z,39.80
2018-11-05T03:05:58.083Z,37.20
2018-11-05T03:08:26.214Z,37.03
2018-11-05T03:10:54.328Z,36.33
2018-11-05T03:13:22.410Z,37.23
2018-11-05T03:15:50.527Z,35.97
2018-11-05T03:18:18.660Z,37.20
2018-11-05T03:20:46.798Z,36.70
2018-11-05T03:23:14.902Z,35.67
2018-11-05T03:25:43.025Z,35.00
2018-11-05T03:28:11.175Z,37.03
2018-11-05T03:30:39.339Z,36.17
2018-11-05T03:33:07.473Z,35.43
2018-11-05T03:35:35.706Z,35.97
2018-11-05T03:38:03.747Z,35.30
2018-11-05T03:40:31.911Z,36.53
2018-11-05T03:43:00.069Z,34.80
2018-11-05T03:45:28.208Z,35.80
2018-11-05T03:47:56.332Z,36.13
2018-11-05T03:50:24.450Z,35.67
2018-11-05T03:52:52.533Z,38.03
2018-11-05T03:55:20.701Z,36.77
2018-11-05T03:57:48.873Z,36.60
2018-11-05T04:00:18.044Z,36.63
2018-11-05T04:02:46.181Z,37.10
2018-11-05T04:05:14.300Z,39.87
2018-11-05T04:07:42.409Z,38.07
2018-11-05T04:10:11.640Z,36.43
2018-11-05T04:12:40.648Z,36.20
2018-11-05T04:15:08.868Z,36.03
2018-11-05T04:17:36.969Z,35.70
2018-11-05T04:20:06.368Z,36.23
2018-11-05T04:22:34.540Z,36.90
2018-11-05T04:25:02.700Z,37.03
2018-11-05T04:27:30.923Z,35.60
2018-11-05T04:29:59.007Z,35.17
2018-11-05T04:32:27.128Z,34.70
2018-11-05T04:34:55.273Z,35.87
2018-11-05T04:37:23.413Z,35.87
2018-11-05T04:39:51.587Z,34.90
2018-11-05T04:42:19.692Z,34.33
2018-11-05T04:44:47.873Z,35.43
2018-11-05T04:47:16.049Z,35.97
2018-11-05T04:49:44.163Z,34.13
2018-11-05T04:52:12.289Z,35.97
2018-11-05T04:54:40.335Z,33.37
2018-11-05T04:57:08.425Z,34.23
2018-11-05T04:59:36.602Z,34.87
2018-11-05T05:02:04.785Z,34.97
2018-11-05T05:04:32.901Z,35.60
2018-11-05T05:07:01.015Z,34.53
2018-11-05T05:09:29.219Z,34.73
2018-11-05T05:11:57.367Z,34.63
2018-11-05T05:14:25.550Z,34.27
2018-11-05T05:16:53.676Z,35.57
2018-11-05T05:19:21.803Z,36.43
2018-11-05T05:21:49.940Z,34.90
2018-11-05T05:24:18.045Z,35.73
2018-11-05T05:26:46.144Z,35.90
2018-11-05T05:29:14.237Z,36.57
2018-11-05T05:31:42.398Z,35.13
2018-11-05T05:34:10.490Z,37.63
2018-11-05T05:36:38.583Z,36.10
2018-11-05T05:39:07.130Z,36.07
2018-11-05T05:41:35.250Z,35.57
2018-11-05T05:44:03.371Z,36.10
2018-11-05T05:46:31.494Z,37.77
2018-11-05T05:48:59.650Z,38.40
2018-11-05T05:51:27.787Z,37.83
2018-11-05T05:53:55.924Z,37.30
2018-11-05T05:56:24.110Z,38.20
2018-11-05T05:58:52.224Z,36.80
2018-11-05T06:01:20.368Z,37.83
2018-11-05T06:03:48.587Z,37.87
2018-11-05T06:06:16.882Z,37.90
2018-11-05T06:08:44.867Z,37.73
2018-11-05T06:11:13.110Z,36.97
2018-11-05T06:13:41.236Z,38.27
2018-11-05T06:16:09.601Z,37.70
2018-11-05T06:18:37.789Z,38.23
2018-11-05T06:21:05.916Z,37.43
2018-11-05T06:23:34.099Z,38.43
2018-11-05T06:26:02.291Z,38.87
2018-11-05T06:28:30.526Z,36.83
2018-11-05T06:30:58.635Z,36.80
2018-11-05T06:33:26.789Z,37.33
2018-11-05T06:35:54.965Z,36.80
2018-11-05T06:38:23.123Z,37.77
2018-11-05T06:40:51.301Z,36.97
2018-11-05T06:43:19.405Z,37.10
2018-11-05T06:45:47.645Z,37.57
2018-11-05T06:48:15.742Z,38.33
2018-11-05T06:50:43.890Z,37.13
2018-11-05T06:53:12.074Z,38.27
2018-11-05T06:55:40.175Z,38.13
2018-11-05T06:58:08.306Z,36.70
2018-11-05T07:00:36.440Z,37.93
2018-11-05T07:03:04.735Z,38.10
2018-11-05T07:05:32.839Z,36.47
2018-11-05T07:08:01.874Z,38.03
2018-11-05T07:10:30.112Z,37.13
2018-11-05T07:12:58.256Z,36.93
2018-11-05T07:15:26.352Z,37.27
2018-11-05T07:17:55.482Z,35.67
2018-11-05T07:20:23.767Z,35.50
2018-11-05T07:22:52.360Z,34.97
2018-11-05T07:25:20.754Z,34.63
2018-11-05T07:27:49.005Z,36.70
2018-11-05T07:30:21.429Z,35.53
2018-11-05T07:32:50.625Z,35.90
2018-11-05T07:35:18.912Z,35.20
2018-11-05T07:37:47.059Z,37.70
2018-11-05T07:40:16.586Z,34.93
2018-11-05T07:42:44.731Z,36.10
2018-11-05T07:45:14.832Z,35.77
2018-11-05T07:47:43.916Z,34.27
2018-11-05T07:50:13.064Z,35.17
2018-11-05T07:52:41.142Z,34.07
2018-11-05T07:55:10.736Z,35.40
2018-11-05T07:57:39.691Z,33.43
2018-11-05T08:00:14.430Z,34.43
2018-11-05T08:02:42.681Z,32.77
2018-11-05T08:05:10.811Z,32.03
2018-11-05T08:07:38.976Z,31.13
2018-11-05T08:10:08.815Z,31.97
2018-11-05T08:12:37.217Z,31.13
2018-11-05T08:15:05.752Z,31.50
2018-11-05T08:17:33.934Z,30.33
2018-11-05T08:20:02.450Z,29.40
2018-11-05T08:22:30.630Z,30.40
2018-11-05T08:24:58.822Z,30.17
2018-11-05T08:27:27.015Z,29.57
2018-11-05T08:29:55.356Z,27.60
2018-11-05T08:32:23.548Z,30.20
2018-11-05T08:34:52.496Z,28.47
2018-11-05T08:37:20.830Z,28.47
2018-11-05T08:39:48.931Z,28.63
2018-11-05T08:42:17.184Z,26.00
2018-11-05T08:44:45.460Z,25.33
2018-11-05T08:47:13.775Z,25.17
2018-11-05T08:49:41.965Z,24.83
2018-11-05T08:52:10.757Z,24.03
2018-11-05T08:54:39.270Z,22.80
2018-11-05T08:57:07.466Z,21.87
2018-11-05T08:59:35.636Z,21.27
2018-11-05T09:02:03.874Z,21.37
2018-11-05T09:04:32.198Z,21.60
2018-11-05T09:07:00.293Z,20.87
2018-11-05T09:09:28.502Z,20.57
2018-11-05T09:11:56.695Z,21.10
2018-11-05T09:14:24.837Z,19.43
2018-11-05T09:16:52.951Z,18.07
2018-11-05T09:19:21.081Z,20.00
2018-11-05T09:21:50.187Z,19.83
2018-11-05T09:24:18.340Z,19.37
2018-11-05T09:26:46.525Z,20.03
2018-11-05T09:29:14.710Z,19.70
2018-11-05T09:31:42.874Z,21.50
2018-11-05T09:34:10.986Z,20.03
2018-11-05T09:36:39.163Z,20.17
2018-11-05T09:39:07.609Z,20.90
2018-11-05T09:41:35.809Z,19.57
2018-11-05T09:44:03.977Z,19.73
2018-11-05T09:46:32.107Z,17.37
2018-11-05T09:49:00.255Z,19.03
2018-11-05T09:51:28.438Z,19.17
2018-11-05T09:53:56.673Z,17.90
2018-11-05T09:56:24.802Z,17.53
2018-11-05T09:58:53.066Z,18.67
2018-11-05T10:01:21.187Z,18.67
2018-11-05T10:03:54.807Z,18.53
2018-11-05T10:06:23.374Z,17.97
2018-11-05T10:08:51.447Z,18.27
2018-11-05T10:11:19.882Z,17.77
2018-11-05T10:13:48.035Z,17.43
2018-11-05T10:16:16.282Z,16.57
2018-11-05T10:18:44.408Z,17.87
2018-11-05T10:21:12.888Z,16.57
2018-11-05T10:23:41.022Z,17.17
2018-11-05T10:26:09.316Z,16.87
2018-11-05T10:28:37.550Z,16.60
2018-11-05T10:31:05.722Z,15.87
2018-11-05T10:33:33.992Z,16.47
2018-11-05T10:36:02.130Z,16.13
2018-11-05T10:38:30.372Z,16.00
2018-11-05T10:40:58.481Z,16.47
2018-11-05T10:43:26.752Z,15.17
2018-11-05T10:45:54.946Z,15.60
2018-11-05T10:48:23.129Z,16.67
2018-11-05T10:50:51.232Z,16.13
2018-11-05T10:53:19.370Z,15.80
2018-11-05T10:55:47.582Z,15.47
2018-11-05T10:58:15.765Z,16.20
2018-11-05T11:00:49.157Z,15.73
2018-11-05T11:03:20.108Z,15.10
2018-11-05T11:05:48.262Z,15.27
2018-11-05T11:08:16.530Z,15.03
2018-11-05T11:10:44.747Z,14.90
2018-11-05T11:13:12.975Z,15.20
2018-11-05T11:15:41.146Z,15.70
2018-11-05T11:18:09.346Z,14.30
2018-11-05T11:20:37.468Z,14.03
2018-11-05T11:23:05.633Z,14.00
2018-11-05T11:25:33.852Z,14.00
2018-11-05T11:28:02.226Z,14.10
2018-11-05T11:30:30.274Z,14.20
2018-11-05T11:32:58.488Z,14.70
2018-11-05T11:35:26.680Z,13.97
2018-11-05T11:37:54.786Z,13.47
2018-11-05T11:40:23.702Z,13.83
2018-11-05T11:42:51.837Z,14.23
2018-11-05T11:45:21.258Z,13.40
2018-11-05T11:47:49.431Z,13.97
2018-11-05T11:50:17.967Z,13.73
2018-11-05T11:52:46.332Z,13.73
2018-11-05T11:55:16.457Z,13.10
2018-11-05T11:57:44.655Z,12.63
2018-11-05T12:00:15.344Z,13.30
2018-11-05T12:02:43.666Z,12.97
2018-11-05T12:05:12.046Z,13.17
2018-11-05T12:07:40.072Z,13.40
2018-11-05T12:10:10.078Z,14.23
2018-11-05T12:12:38.252Z,14.53
2018-11-05T12:15:06.596Z,13.13
2018-11-05T12:17:34.749Z,13.53
2018-11-05T12:20:03.502Z,13.27
2018-11-05T12:22:31.681Z,12.83
2018-11-05T12:24:59.927Z,12.70
2018-11-05T12:27:28.051Z,13.93
2018-11-05T12:29:56.262Z,14.00
2018-11-05T12:32:24.469Z,12.80
2018-11-05T12:34:52.580Z,14.00
2018-11-05T12:37:20.754Z,14.07
2018-11-05T12:39:48.907Z,13.97
2018-11-05T12:42:17.065Z,12.97
2018-11-05T12:44:45.260Z,14.17
2018-11-05T12:47:13.414Z,13.13
2018-11-05T12:49:41.561Z,13.00
2018-11-05T12:52:09.849Z,13.40
2018-11-05T12:54:38.026Z,13.23
2018-11-05T12:57:06.168Z,13.53
2018-11-05T12:59:34.278Z,12.17
2018-11-05T13:02:02.413Z,13.67
2018-11-05T13:04:30.590Z,13.40
2018-11-05T13:06:58.717Z,13.03
2018-11-05T13:09:27.023Z,13.23
2018-11-05T13:11:55.236Z,12.90
2018-11-05T13:14:23.400Z,13.00
2018-11-05T13:16:54.895Z,13.17
2018-11-05T13:19:23.115Z,12.37
2018-11-05T13:21:51.214Z,11.83
2018-11-05T13:24:19.360Z,12.63
2018-11-05T13:26:47.548Z,12.47
2018-11-05T13:29:15.784Z,12.67
2018-11-05T13:31:43.968Z,13.07
2018-11-05T13:34:12.453Z,13.47
2018-11-05T13:36:40.682Z,12.80
2018-11-05T13:39:09.501Z,12.33
2018-11-05T13:41:37.715Z,11.67
2018-11-05T13:44:06.004Z,11.77
2018-11-05T13:46:34.655Z,12.77
2018-11-05T13:49:02.883Z,11.63
2018-11-05T13:51:30.902Z,12.10
2018-11-05T13:53:59.264Z,12.80
2018-11-05T13:56:27.345Z,12.63
2018-11-05T13:58:55.638Z,11.63
2018-11-05T14:01:23.746Z,12.53
2018-11-05T14:03:51.860Z,11.90
2018-11-05T14:06:19.973Z,12.10
2018-11-05T14:08:48.110Z,12.07
2018-11-05T14:11:16.246Z,11.30
2018-11-05T14:13:44.382Z,12.60
2018-11-05T14:16:12.504Z,12.20
2018-11-05T14:18:40.588Z,11.53
2018-11-05T14:21:08.696Z,11.27
2018-11-05T14:23:36.812Z,10.63
2018-11-05T14:26:05.977Z,12.20
2018-11-05T14:28:34.366Z,11.60
2018-11-05T14:31:02.158Z,11.27
2018-11-05T14:33:30.511Z,11.07
2018-11-05T14:35:58.741Z,10.23
2018-11-05T14:38:26.919Z,10.37
2018-11-05T14:40:54.999Z,11.03
2018-11-05T14:43:23.127Z,9.97
2018-11-05T14:45:51.263Z,10.37
2018-11-05T14:48:19.442Z,10.43
2018-11-05T14:50:47.614Z,11.30
2018-11-05T14:53:15.799Z,10.30
2018-11-05T14:55:43.948Z,10.53
2018-11-05T14:58:12.188Z,10.47
2018-11-05T15:00:40.287Z,9.83
2018-11-05T15:03:08.584Z,10.67
2018-11-05T15:05:36.701Z,10.77
2018-11-05T15:08:05.300Z,10.17
2018-11-05T15:10:33.383Z,10.60
2018-11-05T15:13:01.553Z,10.50
2018-11-05T15:15:29.739Z,10.30
2018-11-05T15:17:57.815Z,9.83
2018-11-05T15:20:26.026Z,10.07
2018-11-05T15:22:54.294Z,9.20
2018-11-05T15:25:22.736Z,10.57
2018-11-05T15:27:50.982Z,10.23
2018-11-05T15:30:20.665Z,9.73
2018-11-05T15:32:48.822Z,10.00
2018-11-05T15:35:17.011Z,9.33
2018-11-05T15:37:45.420Z,9.23
2018-11-05T15:40:14.844Z,8.57
2018-11-05T15:42:43.410Z,9.07
2018-11-05T15:45:15.940Z,9.73
2018-11-05T15:47:44.617Z,10.63
2018-11-05T15:50:14.598Z,10.83
2018-11-05T15:52:43.237Z,10.20
2018-11-05T15:55:11.756Z,9.70
2018-11-05T15:57:40.190Z,11.70
2018-11-05T16:00:15.172Z,10.40
2018-11-05T16:02:43.830Z,9.97
2018-11-05T16:05:12.685Z,10.53
2018-11-05T16:07:40.866Z,10.93
2018-11-05T16:10:09.043Z,10.10
2018-11-05T16:12:37.455Z,10.90
2018-11-05T16:15:06.125Z,9.73
2018-11-05T16:17:34.396Z,10.17
2018-11-05T16:20:02.568Z,10.90
2018-11-05T16:22:30.756Z,9.80
2018-11-05T16:24:59.266Z,10.03
2018-11-05T16:27:27.474Z,9.40
2018-11-05T16:29:55.786Z,10.03
2018-11-05T16:32:23.981Z,9.93
2018-11-05T16:34:52.189Z,9.60
2018-11-05T16:37:20.315Z,10.07
2018-11-05T16:39:49.127Z,10.03
2018-11-05T16:42:17.301Z,10.00
2018-11-05T16:44:45.537Z,10.63
2018-11-05T16:47:13.685Z,10.37
2018-11-05T16:49:41.852Z,10.33
2018-11-05T16:52:10.877Z,10.43
2018-11-05T16:54:39.070Z,11.30
2018-11-05T16:57:07.392Z,11.50
2018-11-05T16:59:36.096Z,9.93
2018-11-05T17:02:08.875Z,11.13
2018-11-05T17:04:37.111Z,12.57
2018-11-05T17:07:05.218Z,12.17
2018-11-05T17:09:33.376Z,11.70
2018-11-05T17:12:01.554Z,11.03
2018-11-05T17:14:29.845Z,11.67
2018-11-05T17:16:58.038Z,10.83
2018-11-05T17:19:26.250Z,12.13
2018-11-05T17:21:54.419Z,11.33
2018-11-05T17:24:22.611Z,11.17
2018-11-05T17:26:51.792Z,11.00
2018-11-05T17:29:20.037Z,11.33
2018-11-05T17:31:48.163Z,10.97
2018-11-05T17:34:16.300Z,11.17
2018-11-05T17:36:44.417Z,11.80
2018-11-05T17:39:13.460Z,11.43
2018-11-05T17:41:42.233Z,10.77
2018-11-05T17:44:11.862Z,11.03
2018-11-05T17:46:40.088Z,11.93
2018-11-05T17:49:09.870Z,12.00
2018-11-05T17:51:38.068Z,12.03
2018-11-05T17:54:06.474Z,11.27
2018-11-05T17:56:34.670Z,11.80
2018-11-05T17:59:03.047Z,12.23
2018-11-05T18:01:31.221Z,12.20
2018-11-05T18:03:59.518Z,11.40
2018-11-05T18:06:27.700Z,11.37
2018-11-05T18:08:56.086Z,10.93
2018-11-05T18:11:24.171Z,11.93
2018-11-05T18:13:52.306Z,11.73
2018-11-05T18:16:20.489Z,11.33
2018-11-05T18:18:48.752Z,11.33
2018-11-05T18:21:17.136Z,11.27
2018-11-05T18:23:45.232Z,11.87
2018-11-05T18:26:15.442Z,10.10
2018-11-05T18:28:43.891Z,12.17
2018-11-05T18:31:12.094Z,12.37
2018-11-05T18:33:40.620Z,12.40
2018-11-05T18:36:08.849Z,11.73
2018-11-05T18:38:37.000Z,11.30
2018-11-05T18:41:05.509Z,11.10
2018-11-05T18:43:33.653Z,11.73
2018-11-05T18:46:01.838Z,13.33
2018-11-05T18:48:30.187Z,12.43
2018-11-05T18:50:58.348Z,12.97
2018-11-05T18:53:26.559Z,13.80
2018-11-05T18:55:54.670Z,12.77
2018-11-05T18:58:22.866Z,12.60
2018-11-05T19:00:51.126Z,12.27
2018-11-05T19:03:19.382Z,13.70
2018-11-05T19:05:47.438Z,12.20
2018-11-05T19:08:15.799Z,13.30
2018-11-05T19:10:43.949Z,14.03
2018-11-05T19:13:12.121Z,12.80
2018-11-05T19:15:40.345Z,14.87
2018-11-05T19:18:08.553Z,14.10
2018-11-05T19:20:36.820Z,14.77
2018-11-05T19:23:05.282Z,13.43
2018-11-05T19:25:33.274Z,13.33
2018-11-05T19:28:01.543Z,12.60
2018-11-05T19:30:29.862Z,14.57
2018-11-05T19:32:57.966Z,14.87
2018-11-05T19:35:26.180Z,14.53
2018-11-05T19:37:54.299Z,12.73
2018-11-05T19:40:22.456Z,13.80
2018-11-05T19:42:50.731Z,13.70
2018-11-05T19:45:20.270Z,13.53
2018-11-05T19:47:48.448Z,13.53
2018-11-05T19:50:17.950Z,13.37
2018-11-05T19:52:46.435Z,13.33
2018-11-05T19:55:15.637Z,12.93
2018-11-05T19:57:44.639Z,13.47
2018-11-05T20:00:20.143Z,13.03
2018-11-05T20:02:48.841Z,13.40
2018-11-05T20:05:17.481Z,13.80
2018-11-05T20:07:46.186Z,13.10
2018-11-05T20:10:14.656Z,14.40
2018-11-05T20:12:43.491Z,14.60
2018-11-05T20:15:11.889Z,14.67
2018-11-05T20:17:41.073Z,15.23
2018-11-05T20:20:10.172Z,14.33
2018-11-05T20:22:38.326Z,16.20
2018-11-05T20:25:07.148Z,15.87
2018-11-05T20:27:35.702Z,15.37
2018-11-05T20:30:04.308Z,16.20
2018-11-05T20:32:33.039Z,16.17
2018-11-05T20:35:00.636Z,16.60
2018-11-05T20:37:28.836Z,15.70
2018-11-05T20:39:57.184Z,15.70
2018-11-05T20:42:25.196Z,15.13
2018-11-05T20:44:53.347Z,16.63
2018-11-05T20:47:21.471Z,17.10
2018-11-05T20:49:49.660Z,16.97
2018-11-05T20:52:17.848Z,17.27
2018-11-05T20:54:45.996Z,16.50
2018-11-05T20:57:14.434Z,16.27
2018-11-05T20:59:42.617Z,16.73
2018-11-05T21:02:10.841Z,17.43
2018-11-05T21:04:39.169Z,20.20
2018-11-05T21:07:07.653Z,15.53
2018-11-05T21:09:42.767Z,14.60
2018-11-05T21:12:11.285Z,15.53
2018-11-05T21:14:39.633Z,18.17
2018-11-05T21:17:07.799Z,19.30
2018-11-05T21:19:35.919Z,19.73
2018-11-05T21:22:04.224Z,20.00
2018-11-05T21:24:32.311Z,20.17
2018-11-05T21:27:01.623Z,19.60
2018-11-05T21:29:29.931Z,20.83
2018-11-05T21:31:58.113Z,19.30
2018-11-05T21:34:26.263Z,18.57
2018-11-05T21:36:54.810Z,19.27
2018-11-05T21:39:23.116Z,19.03
2018-11-05T21:41:51.254Z,19.03
2018-11-05T21:44:19.484Z,19.77
2018-11-05T21:46:47.645Z,20.90
2018-11-05T21:49:15.759Z,21.30
2018-11-05T21:51:44.176Z,22.70
2018-11-05T21:54:12.412Z,22.63
2018-11-05T21:56:40.551Z,23.07
2018-11-05T22:12:40.595Z,18.93
2018-11-05T22:15:08.925Z,21.00
2018-11-05T22:17:37.246Z,23.07
2018-11-05T22:20:06.222Z,25.07
2018-11-05T22:22:34.674Z,22.90
2018-11-05T22:25:09.961Z,23.10
2018-11-05T22:27:38.393Z,22.53
2018-11-05T22:30:13.349Z,23.33
2018-11-05T22:32:41.661Z,20.67
2018-11-05T22:37:44.970Z,22.17
2018-11-05T22:40:14.241Z,25.47
2018-11-05T22:42:42.700Z,26.80
2018-11-05T22:45:12.528Z,31.77
2018-11-05T22:47:41.032Z,29.80
2018-11-05T22:50:09.566Z,28.43
2018-11-05T22:52:44.348Z,26.83
2018-11-05T22:55:12.596Z,25.60
2018-11-05T22:57:40.784Z,25.93
2018-11-05T23:00:15.252Z,26.97
2018-11-05T23:02:48.641Z,26.50
2018-11-05T23:06:05.943Z,28.90
2018-11-05T23:08:34.231Z,27.70
2018-11-05T23:11:02.408Z,26.80
2018-11-05T23:13:30.547Z,29.70
2018-11-05T23:15:58.711Z,29.57
2018-11-05T23:18:26.881Z,27.07
2018-11-05T23:20:55.085Z,27.90
2018-11-05T23:23:23.220Z,28.37
2018-11-05T23:25:51.348Z,28.10
2018-11-05T23:28:19.528Z,27.80
2018-11-05T23:30:47.692Z,29.87
2018-11-05T23:33:15.877Z,29.23
2018-11-05T23:35:43.976Z,29.37
2018-11-05T23:38:12.081Z,28.60
2018-11-05T23:40:40.263Z,30.43
2018-11-05T23:43:08.420Z,28.07
2018-11-05T23:45:36.617Z,29.27
2018-11-05T23:48:05.140Z,26.20
2018-11-05T23:50:33.279Z,27.50
2018-11-05T23:53:01.416Z,26.10
2018-11-05T23:55:29.566Z,27.47
2018-11-05T23:57:57.692Z,26.83
